Impacts TAF Board
For situational awareness. Not to be used for flight planning purposes.
IDs:

KMFR - Medford/Roque Valley, OR, US

Issued at 0539 UTC 22 Oct 2021
Updated at 0704 UTC 22 Oct 2021
Potential Impact None Slight Moderate High
Time0653Z 22/08Z 22/09Z 22/10Z 22/11Z 22/12Z 22/13Z 22/14Z 22/15Z 22/16Z 22/17Z 22/18Z 22/19Z 22/20Z>>
Type OBS PRVL PRVL PRVL PRVL PRVL PRVL PRVL PRVL PRVL PRVL PRVL PRVL PRVL
VIS 7 4 4 4 5 5 5 5 5 5 5 >6 >6 >6
CIG 60 25 25 25 40 40 40 40 40 40 40 40 40 40
Cover OVC OVC OVC OVC OVC OVC OVC OVC OVC OVC OVC OVC OVC OVC
FltCat VFR MVFR MVFR MVFR MVFR MVFR MVFR MVFR MVFR MVFR MVFR VFR VFR VFR
WX -RA RA BR RA BR RA BR -SHRA BR -SHRA BR -SHRA BR -SHRA BR -SHRA BR -SHRA BR -SHRA BR -SHRA -SHRA -SHRA
WDir 50 320 320 320 VRB VRB VRB VRB VRB VRB VRB 320 320 320
WSpd 9 13 13 13 3 3 3 3 3 3 3 5 5 5
WGst -- 20 20 20 -- -- -- -- -- -- -- -- -- --
Raw TAF
KMFR 220539Z 2206/2306 32013G20KT 4SM RA BR OVC025
  FM221100 VRB03KT 5SM -SHRA BR SCT025 OVC040
  FM221800 32005KT P6SM -SHRA SCT030 OVC040
  FM222200 31008KT P6SM OVC050


Raw METAR
KMFR 220653Z AUTO 05009KT 7SM -RA FEW039 OVC060 12/11 A2985 RMK AO2 SLP101 P0008 T01170106
KMFR 220553Z AUTO 06007KT 8SM -RA FEW035 OVC048 12/11 A2985 RMK AO2 SLP103 P0017 60050 T01220111 10222 20117 51024
KMFR 220501Z AUTO 34008KT 4SM RA BR FEW027 OVC035 12/12 A2984 RMK AO2 P0002 T01220117
KMFR 220453Z AUTO 33009KT 2 1/2SM +RA BR FEW021 SCT027 OVC033 12/12 A2983 RMK AO2 SLP101 P0021 T01220117
KMFR 220449Z AUTO 32010KT 2 1/2SM +RA BR FEW022 OVC030 13/12 A2983 RMK AO2 P0019
KMFR 220438Z AUTO 31011G20KT 4SM RA BR BKN024 OVC032 13/12 A2982 RMK AO2 P0014 T01280117
KMFR 220431Z AUTO 31009KT 3SM RA BR SCT024 OVC031 13/12 A2982 RMK AO2 P0011 T01280117

METAR Board
Radar Display
Forecast Discussion
For situational awareness. Not to be used for flight planning purposes.